»·PEaware :: N179TD KAVX-KSAN

N179TD :: KAVX-KSAN

FLIGHT INFORMATION

Flight Status: Arrived
Operator: Privately registered:
United States
More flights under this callsign
Pilot: Terry D. (17346)
Aircraft: CESSNA 208 CARAVAN
(C208)
More flights by this aircraft type
Origin: KAVX Catalina
United States
Destination: KSAN San Diego Intl-Lindbergh
United States
More flights between these airports :: More routes between these airports
Route: SXC V208 OCN V23 MZB
File this flight plan on PilotEdge
Remarks: CSTN56 I-8
Altitude:
(Current/Filed)
4,000ft
Speed:
(Current/Filed)
182kts
Departed: 07-Jan-18 04:51 PM
Arrived: 07-Jan-18 05:35 PM
Distance/Time
Traveled:
74nm/0:44
Distance/Time
To Go:
Arrived

Flight Plot

Page will automatically refresh every two minutes.


Map Options




Map Legend


Flown Route
Filed Route
Departure Airport
Arrival Airport
Navaid (VOR, NDB)
Fix

Horizontal Profiles

Position Reports

Time Latitude Longitude Heading Altitude Ground
Speed
07-Jan-18 16:43 33.403525 -118.415685 141 1551ft 0kts
07-Jan-18 16:44 33.403525 -118.415685 141 1551ft 0kts
07-Jan-18 16:45 33.403525 -118.415685 141 1551ft 0kts
07-Jan-18 16:46 33.403525 -118.415685 141 1551ft 0kts
07-Jan-18 16:47 33.403525 -118.415685 141 1551ft 0kts
07-Jan-18 16:48 33.403525 -118.415685 141 1551ft 0kts
07-Jan-18 16:49 33.403525 -118.415685 141 1551ft 0kts
07-Jan-18 16:50 33.403525 -118.415685 141 1551ft 0kts
07-Jan-18 16:51 33.403525 -118.415685 141 1551ft 0kts
07-Jan-18 16:52 33.403505 -118.415666 140 1551ft 2kts
07-Jan-18 16:53 33.404889 -118.414989 18 1544ft 8kts
07-Jan-18 16:54 33.407166 -118.411382 32 1501ft 0kts
07-Jan-18 16:55 33.407166 -118.411382 32 1501ft 0kts
07-Jan-18 16:56 33.407166 -118.411382 32 1501ft 0kts
07-Jan-18 16:57 33.400911 -118.422456 232 1645ft 114kts
07-Jan-18 16:58 33.379921 -118.426045 111 3288ft 119kts
07-Jan-18 16:59 33.371515 -118.382323 105 3961ft 160kts
07-Jan-18 17:00 33.363263 -118.326167 109 3886ft 176kts
07-Jan-18 17:01 33.353602 -118.269781 100 3884ft 168kts
07-Jan-18 17:02 33.345959 -118.215427 100 3883ft 165kts
07-Jan-18 17:03 33.338253 -118.161162 100 3882ft 165kts
07-Jan-18 17:04 33.330693 -118.108129 100 4037ft 162kts
07-Jan-18 17:05 33.324272 -118.063416 100 4036ft 165kts
07-Jan-18 17:06 33.315158 -118.000191 100 4031ft 166kts
07-Jan-18 17:07 33.308578 -117.954671 100 4028ft 167kts
07-Jan-18 17:08 33.299324 -117.890864 99 4022ft 168kts
07-Jan-18 17:09 33.292638 -117.844915 99 4017ft 168kts
07-Jan-18 17:10 33.284306 -117.789569 99 4015ft 169kts
07-Jan-18 17:11 33.280343 -117.725526 90 4016ft 168kts
07-Jan-18 17:12 33.277293 -117.678891 95 4015ft 168kts
07-Jan-18 17:13 33.271361 -117.623205 97 4015ft 169kts
07-Jan-18 17:14 33.263330 -117.558501 98 4014ft 168kts
07-Jan-18 17:15 33.257345 -117.512542 99 4012ft 168kts
07-Jan-18 17:16 33.250030 -117.457412 99 3992ft 167kts
07-Jan-18 17:17 33.228505 -117.415241 164 3990ft 160kts
07-Jan-18 17:18 33.186902 -117.398663 137 3991ft 163kts
07-Jan-18 17:19 33.145850 -117.377194 161 3989ft 163kts
07-Jan-18 17:20 33.103050 -117.359371 161 3996ft 162kts
07-Jan-18 17:21 33.060720 -117.341789 162 3996ft 161kts
07-Jan-18 17:22 33.018398 -117.324234 162 3996ft 161kts
07-Jan-18 17:23 32.977161 -117.303084 155 3996ft 162kts
07-Jan-18 17:24 32.934788 -117.285693 163 3995ft 162kts
07-Jan-18 17:25 32.891859 -117.268754 163 3993ft 164kts
07-Jan-18 17:26 32.866302 -117.226414 111 3993ft 168kts
07-Jan-18 17:27 32.848713 -117.174674 111 3994ft 169kts
07-Jan-18 17:28 32.830998 -117.122982 111 3995ft 169kts
07-Jan-18 17:29 32.813308 -117.071277 111 3996ft 169kts
07-Jan-18 17:30 32.795782 -117.019422 111 3996ft 169kts
07-Jan-18 17:31 32.778414 -116.967696 111 3995ft 168kts
07-Jan-18 17:32 32.755327 -116.922087 172 3993ft 164kts
07-Jan-18 17:33 32.710922 -116.930521 211 3986ft 161kts
07-Jan-18 17:34 32.692504 -116.975992 250 3990ft 146kts
07-Jan-18 17:35 32.692126 -117.019127 286 3897ft 130kts
07-Jan-18 17:36 32.702020 -117.059994 287 3174ft 113kts
07-Jan-18 17:37 32.710205 -117.093494 287 2354ft 102kts
07-Jan-18 17:38 32.717216 -117.122405 288 1555ft 84kts
07-Jan-18 17:39 32.723594 -117.148654 288 757ft 82kts
07-Jan-18 17:40 32.729368 -117.172972 289 204ft 76kts
07-Jan-18 17:41 32.734166 -117.190832 328 18ft 9kts
07-Jan-18 17:42 32.735233 -117.189002 190 18ft 0kts
07-Jan-18 17:43 32.735233 -117.189002 190 18ft 0kts
07-Jan-18 17:44 32.735233 -117.189002 190 18ft 0kts
07-Jan-18 17:45 32.735233 -117.189002 190 18ft 0kts
07-Jan-18 17:46 32.735233 -117.189002 190 18ft 0kts
07-Jan-18 17:47 32.735233 -117.189002 190 18ft 0kts
07-Jan-18 17:48 32.735233 -117.189002 190 18ft 0kts
07-Jan-18 17:49 32.735233 -117.189002 190 18ft 0kts

Navigation Log

Ident Type
1. KAVX Airport
2. SXC Navaid
3. AVOLS Fix
4. PACIF Fix
5. HUBRD Fix
6. OCN Navaid
7. HURSI Fix
8. CARIF Fix
9. MZB Navaid
10. KSAN Airport